createdAt,value
2019-01-26T00:00:21.220Z,18.02
2019-01-26T00:01:21.140Z,18.05
2019-01-26T00:02:21.095Z,18.01
2019-01-26T00:03:21.174Z,18
2019-01-26T00:04:21.241Z,18
2019-01-26T00:05:21.955Z,17.98
2019-01-26T00:06:21.593Z,17.98
2019-01-26T00:07:21.117Z,17.98
2019-01-26T00:08:21.646Z,17.98
2019-01-26T00:09:21.114Z,17.95
2019-01-26T00:10:21.533Z,17.97
2019-01-26T00:11:21.330Z,17.94
2019-01-26T00:12:21.422Z,17.93
2019-01-26T00:13:21.517Z,17.95
2019-01-26T00:14:21.351Z,17.94
2019-01-26T00:15:21.471Z,17.95
2019-01-26T00:16:22.051Z,17.94
2019-01-26T00:17:21.761Z,17.91
2019-01-26T00:18:21.464Z,17.91
2019-01-26T00:19:21.227Z,17.91
2019-01-26T00:20:21.358Z,17.89
2019-01-26T00:21:21.161Z,17.89
2019-01-26T00:22:21.391Z,17.89
2019-01-26T00:23:21.558Z,17.87
2019-01-26T00:24:21.082Z,17.89
2019-01-26T00:25:21.432Z,17.87
2019-01-26T00:26:21.164Z,17.87
2019-01-26T00:27:21.735Z,17.88
2019-01-26T00:28:21.247Z,17.87
2019-01-26T00:29:21.335Z,17.84
2019-01-26T00:30:21.381Z,17.84
2019-01-26T00:31:21.222Z,17.82
2019-01-26T00:32:21.341Z,17.84
2019-01-26T00:33:21.420Z,17.84
2019-01-26T00:34:21.167Z,17.82
2019-01-26T00:35:21.508Z,17.81
2019-01-26T00:36:21.593Z,17.82
2019-01-26T00:37:21.143Z,17.8
2019-01-26T00:38:21.302Z,17.81
2019-01-26T00:39:21.513Z,17.81
2019-01-26T00:40:23.008Z,17.8
2019-01-26T00:41:21.275Z,17.8
2019-01-26T00:42:21.732Z,17.78
2019-01-26T00:43:21.255Z,17.78
2019-01-26T00:44:21.443Z,17.76
2019-01-26T00:45:21.374Z,17.77
2019-01-26T00:46:21.214Z,17.78
2019-01-26T00:47:21.454Z,17.74
2019-01-26T00:48:21.313Z,17.78
2019-01-26T00:49:24.543Z,17.74
2019-01-26T00:50:21.370Z,17.73
2019-01-26T00:51:21.297Z,17.74
2019-01-26T00:52:21.487Z,17.73
2019-01-26T00:53:21.098Z,17.73
2019-01-26T00:54:21.626Z,17.73
2019-01-26T00:55:21.627Z,17.71
2019-01-26T00:56:21.330Z,17.7
2019-01-26T00:57:21.358Z,17.7
2019-01-26T00:58:24.183Z,17.68
2019-01-26T00:59:21.148Z,17.68
2019-01-26T01:00:21.278Z,17.68
2019-01-26T01:01:21.362Z,17.7
2019-01-26T01:02:21.469Z,17.68
2019-01-26T01:03:21.169Z,17.67
2019-01-26T01:04:21.510Z,17.68
2019-01-26T01:05:21.306Z,17.67
2019-01-26T01:06:26.432Z,17.66
2019-01-26T01:07:21.591Z,17.67
2019-01-26T01:08:21.363Z,17.67
2019-01-26T01:09:21.293Z,17.67
2019-01-26T01:10:21.349Z,17.66
2019-01-26T01:11:21.171Z,17.64
2019-01-26T01:12:21.171Z,17.63
2019-01-26T01:13:21.770Z,17.63
2019-01-26T01:14:21.017Z,17.64
2019-01-26T01:15:22.012Z,17.61
2019-01-26T01:16:21.305Z,17.6
2019-01-26T01:17:20.998Z,17.6
2019-01-26T01:18:21.386Z,17.6
2019-01-26T01:19:22.162Z,17.59
2019-01-26T01:20:21.382Z,17.59
2019-01-26T01:21:21.728Z,17.6
2019-01-26T01:22:21.203Z,17.59
2019-01-26T01:23:21.915Z,17.59
2019-01-26T01:24:21.242Z,17.57
2019-01-26T01:25:21.280Z,17.57
2019-01-26T01:26:21.352Z,17.56
2019-01-26T01:27:21.380Z,17.54
2019-01-26T01:28:21.763Z,17.57
2019-01-26T01:29:21.265Z,17.57
2019-01-26T01:30:21.803Z,17.53
2019-01-26T01:31:21.068Z,17.53
2019-01-26T01:32:21.284Z,17.54
2019-01-26T01:33:21.151Z,17.54
2019-01-26T01:34:21.114Z,17.53
2019-01-26T01:35:21.355Z,17.54
2019-01-26T01:36:21.192Z,17.54
2019-01-26T01:37:21.586Z,17.49
2019-01-26T01:38:21.920Z,17.5
2019-01-26T01:39:21.838Z,17.52
2019-01-26T01:40:21.027Z,17.5
2019-01-26T01:41:21.471Z,17.49
2019-01-26T01:42:21.131Z,17.49
2019-01-26T01:43:21.428Z,17.5
2019-01-26T01:44:21.324Z,17.49
2019-01-26T01:45:21.395Z,17.49
2019-01-26T01:46:21.102Z,17.49
2019-01-26T01:47:21.357Z,17.49
2019-01-26T01:48:22.112Z,17.48
2019-01-26T01:49:21.094Z,17.46
2019-01-26T01:50:21.296Z,17.49
2019-01-26T01:51:21.506Z,17.46
2019-01-26T01:52:23.039Z,17.46
2019-01-26T01:53:21.230Z,17.46
2019-01-26T01:54:21.367Z,17.46
2019-01-26T01:55:21.026Z,17.43
2019-01-26T01:56:21.266Z,17.43
2019-01-26T01:57:22.455Z,17.43
2019-01-26T01:58:21.336Z,17.42
2019-01-26T01:59:21.373Z,17.42
2019-01-26T02:00:21.551Z,17.43
2019-01-26T02:01:21.177Z,17.4
2019-01-26T02:02:21.218Z,17.42
2019-01-26T02:03:21.358Z,17.42
2019-01-26T02:04:21.177Z,17.43
2019-01-26T02:05:21.720Z,17.42
2019-01-26T02:06:21.446Z,17.42
2019-01-26T02:07:20.981Z,17.42
2019-01-26T02:08:21.215Z,17.42
2019-01-26T02:09:21.102Z,17.42
2019-01-26T02:10:21.452Z,17.4
2019-01-26T02:11:21.318Z,17.4
2019-01-26T02:12:21.311Z,17.38
2019-01-26T02:13:21.167Z,17.4
2019-01-26T02:14:21.375Z,17.39
2019-01-26T02:15:21.483Z,17.38
2019-01-26T02:16:21.115Z,17.38
2019-01-26T02:17:21.524Z,17.36
2019-01-26T02:18:21.336Z,17.36
2019-01-26T02:19:21.311Z,17.39
2019-01-26T02:20:21.095Z,17.35
2019-01-26T02:21:21.230Z,17.33
2019-01-26T02:22:21.516Z,17.33
2019-01-26T02:23:21.409Z,17.33
2019-01-26T02:24:21.734Z,17.33
2019-01-26T02:25:21.364Z,17.35
2019-01-26T02:26:21.901Z,17.38
2019-01-26T02:27:21.136Z,17.33
2019-01-26T02:28:21.225Z,17.32
2019-01-26T02:29:21.169Z,17.35
2019-01-26T02:30:21.632Z,17.32
2019-01-26T02:31:21.850Z,17.32
2019-01-26T02:32:21.219Z,17.29
2019-01-26T02:33:21.424Z,17.31
2019-01-26T02:34:21.841Z,17.31
2019-01-26T02:35:21.358Z,17.28
2019-01-26T02:36:21.127Z,17.29
2019-01-26T02:37:21.539Z,17.31
2019-01-26T02:38:21.420Z,17.29
2019-01-26T02:39:21.187Z,17.29
2019-01-26T02:40:21.115Z,17.31
2019-01-26T02:41:24.248Z,17.29
2019-01-26T02:42:21.772Z,17.32
2019-01-26T02:43:21.088Z,17.28
2019-01-26T02:44:21.265Z,17.29
2019-01-26T02:45:21.369Z,17.26
2019-01-26T02:46:21.074Z,17.26
2019-01-26T02:47:21.583Z,17.28
2019-01-26T02:48:21.488Z,17.26
2019-01-26T02:49:21.523Z,17.28
2019-01-26T02:50:21.705Z,17.28
2019-01-26T02:51:21.404Z,17.28
2019-01-26T02:52:21.064Z,17.25
2019-01-26T02:53:21.352Z,17.26
2019-01-26T02:54:21.550Z,17.23
2019-01-26T02:55:24.303Z,17.26
2019-01-26T02:56:21.521Z,17.23
2019-01-26T02:57:21.784Z,17.25
2019-01-26T02:58:21.362Z,17.25
2019-01-26T02:59:21.976Z,17.25
2019-01-26T03:00:23.091Z,17.23
2019-01-26T03:01:21.072Z,17.22
2019-01-26T03:02:21.220Z,17.21
2019-01-26T03:03:21.304Z,17.23
2019-01-26T03:04:21.447Z,17.23
2019-01-26T03:05:21.182Z,17.21
2019-01-26T03:06:21.154Z,17.22
2019-01-26T03:07:21.457Z,17.21
2019-01-26T03:08:21.038Z,17.18
2019-01-26T03:09:21.697Z,17.18
2019-01-26T03:10:21.191Z,17.18
2019-01-26T03:11:23.022Z,17.19
2019-01-26T03:12:21.518Z,17.19
2019-01-26T03:13:21.102Z,17.18
2019-01-26T03:14:21.537Z,17.18
2019-01-26T03:15:21.253Z,17.19
2019-01-26T03:16:21.064Z,17.18
2019-01-26T03:17:21.562Z,17.18
2019-01-26T03:18:21.211Z,17.18
2019-01-26T03:19:21.092Z,17.18
2019-01-26T03:20:23.059Z,17.16
2019-01-26T03:21:21.330Z,17.15
2019-01-26T03:22:21.040Z,17.16
2019-01-26T03:23:21.649Z,17.15
2019-01-26T03:24:21.266Z,17.16
2019-01-26T03:25:21.360Z,17.14
2019-01-26T03:26:21.838Z,17.12
2019-01-26T03:27:21.258Z,17.14
2019-01-26T03:28:21.238Z,17.12
2019-01-26T03:29:21.510Z,17.15
2019-01-26T03:30:21.376Z,17.15
2019-01-26T03:31:21.584Z,17.12
2019-01-26T03:32:21.713Z,17.14
2019-01-26T03:33:22.030Z,17.15
2019-01-26T03:34:20.909Z,17.11
2019-01-26T03:35:21.358Z,17.12
2019-01-26T03:36:21.238Z,17.11
2019-01-26T03:37:21.312Z,17.12
2019-01-26T03:38:21.067Z,17.12
2019-01-26T03:39:21.388Z,17.14
2019-01-26T03:40:21.960Z,17.12
2019-01-26T03:41:21.163Z,17.11
2019-01-26T03:42:21.164Z,17.12
2019-01-26T03:43:21.245Z,17.12
2019-01-26T03:44:21.091Z,17.11
2019-01-26T03:45:21.214Z,17.09
2019-01-26T03:46:21.435Z,17.11
2019-01-26T03:47:21.031Z,17.09
2019-01-26T03:48:21.221Z,17.09
2019-01-26T03:49:21.207Z,17.06
2019-01-26T03:50:21.036Z,17.08
2019-01-26T03:51:21.484Z,17.06
2019-01-26T03:52:21.293Z,17.08
2019-01-26T03:53:21.144Z,17.06
2019-01-26T03:54:21.367Z,17.06
2019-01-26T03:55:21.504Z,17.08
2019-01-26T03:56:21.130Z,17.08
2019-01-26T03:57:21.156Z,17.05
2019-01-26T03:58:21.246Z,17.08
2019-01-26T03:59:21.011Z,17.06
2019-01-26T04:00:21.110Z,17.09
2019-01-26T04:01:21.237Z,17.04
2019-01-26T04:02:21.046Z,17.05
2019-01-26T04:03:21.455Z,17.04
2019-01-26T04:04:21.253Z,17.04
2019-01-26T04:05:21.306Z,17.04
2019-01-26T04:06:21.332Z,17.04
2019-01-26T04:07:21.294Z,17.04
2019-01-26T04:08:21.382Z,17.02
2019-01-26T04:09:21.571Z,17.02
2019-01-26T04:10:21.600Z,17.02
2019-01-26T04:11:22.210Z,17.01
2019-01-26T04:12:21.546Z,16.99
2019-01-26T04:13:21.350Z,17.04
2019-01-26T04:14:21.194Z,17.02
2019-01-26T04:15:21.114Z,17.02
2019-01-26T04:16:21.462Z,17.02
2019-01-26T04:17:22.437Z,17.02
2019-01-26T04:18:21.196Z,16.99
2019-01-26T04:19:21.299Z,17.01
2019-01-26T04:20:21.352Z,16.98
2019-01-26T04:21:21.172Z,16.99
2019-01-26T04:22:21.038Z,16.98
2019-01-26T04:23:21.249Z,16.99
2019-01-26T04:24:21.323Z,16.99
2019-01-26T04:25:21.217Z,16.98
2019-01-26T04:26:21.107Z,16.99
2019-01-26T04:27:21.160Z,16.97
2019-01-26T04:28:21.469Z,16.97
2019-01-26T04:29:21.346Z,16.97
2019-01-26T04:30:21.020Z,16.98
2019-01-26T04:31:21.733Z,16.98
2019-01-26T04:32:21.220Z,16.97
2019-01-26T04:33:21.799Z,16.95
2019-01-26T04:34:21.353Z,16.97
2019-01-26T04:35:21.459Z,16.98
2019-01-26T04:36:21.291Z,16.95
2019-01-26T04:37:21.260Z,16.95
2019-01-26T04:38:21.143Z,16.95
2019-01-26T04:39:21.491Z,16.97
2019-01-26T04:40:21.254Z,16.95
2019-01-26T04:41:21.186Z,16.97
2019-01-26T04:42:21.324Z,16.97
2019-01-26T04:43:21.275Z,16.94
2019-01-26T04:44:21.441Z,16.98
2019-01-26T04:45:21.439Z,16.95
2019-01-26T04:46:21.224Z,16.97
2019-01-26T04:47:21.171Z,16.98
2019-01-26T04:48:21.534Z,16.98
2019-01-26T04:49:21.291Z,16.97
2019-01-26T04:50:21.407Z,16.97
2019-01-26T04:51:21.255Z,16.98
2019-01-26T04:52:20.964Z,16.98
2019-01-26T04:53:21.329Z,16.98
2019-01-26T04:54:21.815Z,17.01
2019-01-26T04:55:21.009Z,17.01
2019-01-26T04:56:21.546Z,17.04
2019-01-26T04:57:21.090Z,17.04
2019-01-26T04:58:21.608Z,17.05
2019-01-26T04:59:21.143Z,17.05
2019-01-26T05:00:21.468Z,17.08
2019-01-26T05:01:21.185Z,17.08
2019-01-26T05:02:21.122Z,17.06
2019-01-26T05:03:21.120Z,17.12
2019-01-26T05:04:21.538Z,17.12
2019-01-26T05:05:21.174Z,17.14
2019-01-26T05:06:21.234Z,17.16
2019-01-26T05:07:21.203Z,17.18
2019-01-26T05:08:21.277Z,17.19
2019-01-26T05:09:21.472Z,17.19
2019-01-26T05:10:21.508Z,17.21
2019-01-26T05:11:21.003Z,17.25
2019-01-26T05:12:21.726Z,17.25
2019-01-26T05:13:21.493Z,17.28
2019-01-26T05:14:21.278Z,17.31
2019-01-26T05:15:21.477Z,17.31
2019-01-26T05:16:21.287Z,17.33
2019-01-26T05:17:23.678Z,17.35
2019-01-26T05:18:21.265Z,17.39
2019-01-26T05:19:23.085Z,17.38
2019-01-26T05:20:21.062Z,17.39
2019-01-26T05:21:21.480Z,17.4
2019-01-26T05:22:21.240Z,17.42
2019-01-26T05:23:21.320Z,17.43
2019-01-26T05:24:21.227Z,17.43
2019-01-26T05:25:21.297Z,17.45
2019-01-26T05:26:21.070Z,17.46
2019-01-26T05:27:21.014Z,17.49
2019-01-26T05:28:21.228Z,17.52
2019-01-26T05:29:24.011Z,17.53
2019-01-26T05:30:21.205Z,17.54
2019-01-26T05:31:21.489Z,17.56
2019-01-26T05:32:21.040Z,17.56
2019-01-26T05:33:21.103Z,17.57
2019-01-26T05:34:21.253Z,17.59
2019-01-26T05:35:21.307Z,17.63
2019-01-26T05:36:21.110Z,17.6
2019-01-26T05:37:21.260Z,17.64
2019-01-26T05:38:21.351Z,17.67
2019-01-26T05:39:21.219Z,17.68
2019-01-26T05:40:21.197Z,17.7
2019-01-26T05:41:21.322Z,17.68
2019-01-26T05:42:21.184Z,17.71
2019-01-26T05:43:21.491Z,17.73
2019-01-26T05:44:21.006Z,17.73
2019-01-26T05:45:21.419Z,17.74
2019-01-26T05:46:21.234Z,17.76
2019-01-26T05:47:23.445Z,17.78
2019-01-26T05:48:21.061Z,17.78
2019-01-26T05:49:21.302Z,17.78
2019-01-26T05:50:21.403Z,17.8
2019-01-26T05:51:20.958Z,17.84
2019-01-26T05:52:21.487Z,17.85
2019-01-26T05:53:20.986Z,17.88
2019-01-26T05:54:21.314Z,17.91
2019-01-26T05:55:21.421Z,17.91
2019-01-26T05:56:21.327Z,17.89
2019-01-26T05:57:21.359Z,17.93
2019-01-26T05:58:21.591Z,17.94
2019-01-26T05:59:21.439Z,17.95
2019-01-26T06:00:21.381Z,17.97
2019-01-26T06:01:21.315Z,17.97
2019-01-26T06:02:21.183Z,17.97
2019-01-26T06:03:21.159Z,17.98
2019-01-26T06:04:21.502Z,17.98
2019-01-26T06:05:21.290Z,18.02
2019-01-26T06:06:21.256Z,18.02
2019-01-26T06:07:21.505Z,18.04
2019-01-26T06:08:23.358Z,18.04
2019-01-26T06:09:21.750Z,18.05
2019-01-26T06:10:21.515Z,18.07
2019-01-26T06:11:25.919Z,18.09
2019-01-26T06:12:21.151Z,18.11
2019-01-26T06:13:21.363Z,18.12
2019-01-26T06:14:21.299Z,18.11
2019-01-26T06:15:21.054Z,18.13
2019-01-26T06:16:21.222Z,18.12
2019-01-26T06:17:21.879Z,18.16
2019-01-26T06:18:21.317Z,18.15
2019-01-26T06:19:21.485Z,18.18
2019-01-26T06:20:24.158Z,18.18
2019-01-26T06:21:21.406Z,18.18
2019-01-26T06:22:21.492Z,18.19
2019-01-26T06:23:21.210Z,18.19
2019-01-26T06:24:21.325Z,18.21
2019-01-26T06:25:21.643Z,18.23
2019-01-26T06:26:21.055Z,18.22
2019-01-26T06:27:22.036Z,18.25
2019-01-26T06:28:21.196Z,18.26
2019-01-26T06:29:21.467Z,18.26
2019-01-26T06:30:21.457Z,18.28
2019-01-26T06:31:21.173Z,18.29
2019-01-26T06:32:21.118Z,18.29
2019-01-26T06:33:21.385Z,18.29
2019-01-26T06:34:21.369Z,18.29
2019-01-26T06:35:22.513Z,18.3
2019-01-26T06:36:21.261Z,18.3
2019-01-26T06:37:21.193Z,18.32
2019-01-26T06:38:21.205Z,18.33
2019-01-26T06:39:21.009Z,18.35
2019-01-26T06:40:21.188Z,18.35
2019-01-26T06:41:21.541Z,18.36
2019-01-26T06:42:21.275Z,18.37
2019-01-26T06:43:21.347Z,18.37
2019-01-26T06:44:20.980Z,18.39
2019-01-26T06:45:22.675Z,18.4
2019-01-26T06:46:21.456Z,18.39
2019-01-26T06:47:24.623Z,18.41
2019-01-26T06:48:21.214Z,18.43
2019-01-26T06:49:23.057Z,18.4
2019-01-26T06:50:21.294Z,18.46
2019-01-26T06:51:21.234Z,18.46
2019-01-26T06:52:21.229Z,18.44
2019-01-26T06:53:21.451Z,18.44
2019-01-26T06:54:21.197Z,18.47
2019-01-26T06:55:21.074Z,18.46
2019-01-26T06:56:20.997Z,18.46
2019-01-26T06:57:21.363Z,18.47
2019-01-26T06:58:21.188Z,18.49
2019-01-26T06:59:21.375Z,18.51
2019-01-26T07:00:21.123Z,18.51
2019-01-26T07:01:21.256Z,18.53
2019-01-26T07:02:21.300Z,18.53
2019-01-26T07:03:21.037Z,18.53
2019-01-26T07:04:21.200Z,18.54
2019-01-26T07:05:21.237Z,18.56
2019-01-26T07:06:21.062Z,18.57
2019-01-26T07:07:21.137Z,18.53
2019-01-26T07:08:21.217Z,18.56
2019-01-26T07:09:21.365Z,18.57
2019-01-26T07:10:21.278Z,18.56
2019-01-26T07:11:20.998Z,18.58
2019-01-26T07:12:21.182Z,18.58
2019-01-26T07:13:21.228Z,18.58
2019-01-26T07:14:21.279Z,18.58
2019-01-26T07:15:21.128Z,18.6
2019-01-26T07:16:21.208Z,18.6
2019-01-26T07:17:21.014Z,18.62
2019-01-26T07:18:21.138Z,18.58
2019-01-26T07:19:21.303Z,18.62
2019-01-26T07:20:21.012Z,18.62
2019-01-26T07:21:21.170Z,18.64
2019-01-26T07:22:21.518Z,18.63
2019-01-26T07:23:21.100Z,18.62
2019-01-26T07:24:22.057Z,18.63
2019-01-26T07:25:21.388Z,18.64
2019-01-26T07:26:21.380Z,18.64
2019-01-26T07:27:20.927Z,18.64
2019-01-26T07:28:21.405Z,18.67
2019-01-26T07:29:21.340Z,18.66
2019-01-26T07:30:21.271Z,18.68
2019-01-26T07:31:21.181Z,18.67
2019-01-26T07:32:21.007Z,18.67
2019-01-26T07:33:21.761Z,18.68
2019-01-26T07:34:21.405Z,18.7
2019-01-26T07:35:21.065Z,18.7
2019-01-26T07:36:20.978Z,18.7
2019-01-26T07:37:21.315Z,18.7
2019-01-26T07:38:21.055Z,18.73
2019-01-26T07:39:21.125Z,18.7
2019-01-26T07:40:21.191Z,18.71
2019-01-26T07:41:21.589Z,18.71
2019-01-26T07:42:21.443Z,18.71
2019-01-26T07:43:21.560Z,18.74
2019-01-26T07:44:21.029Z,18.73
2019-01-26T07:45:21.081Z,18.73
2019-01-26T07:46:21.732Z,18.74
2019-01-26T07:47:21.012Z,18.75
2019-01-26T07:48:21.108Z,18.74
2019-01-26T07:49:21.413Z,18.74
2019-01-26T07:50:20.866Z,18.77
2019-01-26T07:51:21.243Z,18.77
2019-01-26T07:52:21.131Z,18.78
2019-01-26T07:53:21.353Z,18.77
2019-01-26T07:54:21.293Z,18.81
2019-01-26T07:55:21.215Z,18.8
2019-01-26T07:56:21.344Z,18.8
2019-01-26T07:57:21.092Z,18.8
2019-01-26T07:58:21.493Z,18.78
2019-01-26T07:59:21.693Z,18.8
2019-01-26T08:00:21.113Z,18.8
2019-01-26T08:01:21.780Z,18.8
2019-01-26T08:02:24.013Z,18.83
2019-01-26T08:03:21.142Z,18.83
2019-01-26T08:04:21.118Z,18.81
2019-01-26T08:05:21.217Z,18.83
2019-01-26T08:06:21.115Z,18.81
2019-01-26T08:07:21.133Z,18.84
2019-01-26T08:08:21.037Z,18.84
2019-01-26T08:09:21.476Z,18.84
2019-01-26T08:10:21.427Z,18.84
2019-01-26T08:11:21.205Z,18.85
2019-01-26T08:12:21.085Z,18.85
2019-01-26T08:13:21.410Z,18.87
2019-01-26T08:14:21.130Z,18.85
2019-01-26T08:15:22.303Z,18.87
2019-01-26T08:16:21.347Z,18.87
2019-01-26T08:17:21.509Z,18.88
2019-01-26T08:18:24.549Z,18.88
2019-01-26T08:19:21.935Z,18.9
2019-01-26T08:20:21.252Z,18.88
2019-01-26T08:21:21.233Z,18.9
2019-01-26T08:22:21.341Z,18.88
2019-01-26T08:23:21.453Z,18.88
2019-01-26T08:24:21.273Z,18.92
2019-01-26T08:25:21.477Z,18.91
2019-01-26T08:26:21.709Z,18.92
2019-01-26T08:27:21.090Z,18.91
2019-01-26T08:28:20.900Z,18.91
2019-01-26T08:29:21.133Z,18.92
2019-01-26T08:30:20.936Z,18.94
2019-01-26T08:31:21.109Z,18.95
2019-01-26T08:32:22.141Z,18.95
2019-01-26T08:33:21.287Z,18.94
2019-01-26T08:34:21.328Z,18.95
2019-01-26T08:35:20.945Z,18.94
2019-01-26T08:36:21.102Z,18.97
2019-01-26T08:37:21.315Z,18.94
2019-01-26T08:38:24.255Z,18.98
2019-01-26T08:39:21.791Z,18.97
2019-01-26T08:40:21.269Z,18.97
2019-01-26T08:41:21.191Z,18.98
2019-01-26T08:42:22.803Z,18.97
2019-01-26T08:43:22.269Z,18.98
2019-01-26T08:44:21.633Z,18.98
2019-01-26T08:45:21.630Z,18.99
2019-01-26T08:46:21.433Z,18.97
2019-01-26T08:47:24.066Z,19.01
2019-01-26T08:48:21.438Z,18.98
2019-01-26T08:49:21.990Z,18.98
2019-01-26T08:50:22.939Z,18.98
2019-01-26T08:51:21.370Z,18.99
2019-01-26T08:52:21.202Z,18.99
2019-01-26T08:53:21.255Z,19.03
2019-01-26T08:54:21.838Z,19.02
2019-01-26T08:55:21.286Z,19.03
2019-01-26T08:56:21.296Z,19.03
2019-01-26T08:57:21.298Z,19.02
2019-01-26T08:58:21.160Z,19.02
2019-01-26T08:59:21.555Z,19.03
2019-01-26T09:00:22.926Z,19.02
2019-01-26T09:01:22.019Z,19.03
2019-01-26T09:02:26.002Z,19.03
2019-01-26T09:03:21.029Z,19.03
2019-01-26T09:04:21.351Z,19.03
2019-01-26T09:05:21.850Z,19.03
2019-01-26T09:06:21.122Z,19.02
2019-01-26T09:07:22.275Z,19.05
2019-01-26T09:08:21.923Z,19.03
2019-01-26T09:09:20.862Z,19.03
2019-01-26T09:10:21.239Z,19.05
2019-01-26T09:11:21.155Z,19.03
2019-01-26T09:12:21.209Z,19.03
2019-01-26T09:13:21.185Z,19.05
2019-01-26T09:14:21.158Z,19.06
2019-01-26T09:15:20.829Z,19.08
2019-01-26T09:16:21.099Z,19.09
2019-01-26T09:17:21.225Z,19.09
2019-01-26T09:18:21.057Z,19.11
2019-01-26T09:19:21.332Z,19.11
2019-01-26T09:20:21.336Z,19.13
2019-01-26T09:21:21.018Z,19.15
2019-01-26T09:22:24.020Z,19.15
2019-01-26T09:23:21.061Z,19.18
2019-01-26T09:24:21.289Z,19.18
2019-01-26T09:25:21.024Z,19.16
2019-01-26T09:26:21.540Z,19.19
2019-01-26T09:27:21.351Z,19.19
2019-01-26T09:28:21.117Z,19.22
2019-01-26T09:29:21.318Z,19.25
2019-01-26T09:30:20.936Z,19.25
2019-01-26T09:31:21.436Z,19.26
2019-01-26T09:32:21.380Z,19.27
2019-01-26T09:33:21.305Z,19.29
2019-01-26T09:34:21.139Z,19.29
2019-01-26T09:35:21.472Z,19.32
2019-01-26T09:36:21.037Z,19.32
2019-01-26T09:37:22.655Z,19.32
2019-01-26T09:38:21.026Z,19.35
2019-01-26T09:39:21.260Z,19.35
2019-01-26T09:40:21.003Z,19.35
2019-01-26T09:41:21.122Z,19.35
2019-01-26T09:42:21.058Z,19.36
2019-01-26T09:43:21.331Z,19.36
2019-01-26T09:44:21.461Z,19.35
2019-01-26T09:45:20.914Z,19.37
2019-01-26T09:46:21.115Z,19.39
2019-01-26T09:47:21.098Z,19.4
2019-01-26T09:48:21.110Z,19.4
2019-01-26T09:49:21.063Z,19.42
2019-01-26T09:50:20.944Z,19.42
2019-01-26T09:51:21.297Z,19.45
2019-01-26T09:52:21.374Z,19.42
2019-01-26T09:53:21.303Z,19.43
2019-01-26T09:54:21.346Z,19.45
2019-01-26T09:55:20.929Z,19.45
2019-01-26T09:56:20.921Z,19.47
2019-01-26T09:57:21.270Z,19.49
2019-01-26T09:58:21.263Z,19.49
2019-01-26T09:59:21.682Z,19.47
2019-01-26T10:00:21.140Z,19.47
2019-01-26T10:01:21.190Z,19.49
2019-01-26T10:02:21.358Z,19.49
2019-01-26T10:03:21.326Z,19.52
2019-01-26T10:04:20.881Z,19.5
2019-01-26T10:05:21.025Z,19.53
2019-01-26T10:06:21.126Z,19.53
2019-01-26T10:07:21.222Z,19.53
2019-01-26T10:08:20.997Z,19.53
2019-01-26T10:09:21.135Z,19.53
2019-01-26T10:10:21.339Z,19.54
2019-01-26T10:11:21.526Z,19.53
2019-01-26T10:12:22.130Z,19.57
2019-01-26T10:13:22.800Z,19.57
2019-01-26T10:14:22.615Z,19.57
2019-01-26T10:15:21.766Z,19.57
2019-01-26T10:16:22.167Z,19.6
2019-01-26T10:17:21.079Z,19.63
2019-01-26T10:18:21.256Z,19.61
2019-01-26T10:19:20.891Z,19.61
2019-01-26T10:20:21.486Z,19.63
2019-01-26T10:21:21.141Z,19.61
2019-01-26T10:22:21.508Z,19.61
2019-01-26T10:23:22.060Z,19.63
2019-01-26T10:24:21.217Z,19.64
2019-01-26T10:25:20.942Z,19.61
2019-01-26T10:26:21.343Z,19.61
2019-01-26T10:27:21.017Z,19.63
2019-01-26T10:28:21.485Z,19.63
2019-01-26T10:29:21.885Z,19.61
2019-01-26T10:30:21.592Z,19.61
2019-01-26T10:31:20.982Z,19.6
2019-01-26T10:32:21.018Z,19.6
2019-01-26T10:33:21.372Z,19.61
2019-01-26T10:34:21.066Z,19.61
2019-01-26T10:35:20.918Z,19.6
2019-01-26T10:36:21.294Z,19.61
2019-01-26T10:37:21.586Z,19.61
2019-01-26T10:38:20.980Z,19.61
2019-01-26T10:39:23.137Z,19.63
2019-01-26T10:40:22.855Z,19.63
2019-01-26T10:41:21.915Z,19.64
2019-01-26T10:42:21.559Z,19.64
2019-01-26T10:43:21.237Z,19.61
2019-01-26T10:44:21.209Z,19.64
2019-01-26T10:45:21.171Z,19.61
2019-01-26T10:46:21.949Z,19.65
2019-01-26T10:47:21.015Z,19.65
2019-01-26T10:48:22.954Z,19.67
2019-01-26T10:49:21.830Z,19.67
2019-01-26T10:50:21.203Z,19.65
2019-01-26T10:51:20.906Z,19.64
2019-01-26T10:52:21.157Z,19.61
2019-01-26T10:53:21.312Z,19.63
2019-01-26T10:54:21.029Z,19.64
2019-01-26T10:55:22.763Z,19.65
2019-01-26T10:56:21.249Z,19.67
2019-01-26T10:57:21.765Z,19.67
2019-01-26T10:58:22.665Z,19.67
2019-01-26T10:59:20.816Z,19.71
2019-01-26T11:00:21.023Z,19.71
2019-01-26T11:01:21.139Z,19.73
2019-01-26T11:02:21.287Z,19.73
2019-01-26T11:03:20.943Z,19.73
2019-01-26T11:04:21.298Z,19.71
2019-01-26T11:05:21.874Z,19.74
2019-01-26T11:06:21.550Z,19.74
2019-01-26T11:07:20.922Z,19.74
2019-01-26T11:08:21.749Z,19.73
2019-01-26T11:09:21.251Z,19.74
2019-01-26T11:10:21.719Z,19.75
2019-01-26T11:11:20.975Z,19.75
2019-01-26T11:12:22.157Z,19.75
2019-01-26T11:13:20.970Z,19.81
2019-01-26T11:14:21.859Z,19.81
2019-01-26T11:15:22.827Z,19.81
2019-01-26T11:16:21.839Z,19.81
2019-01-26T11:17:21.274Z,19.82
2019-01-26T11:18:21.193Z,19.82
2019-01-26T11:19:21.273Z,19.82
2019-01-26T11:20:21.166Z,19.82
2019-01-26T11:21:21.121Z,19.85
2019-01-26T11:22:21.272Z,19.84
2019-01-26T11:23:21.208Z,19.84
2019-01-26T11:24:21.292Z,19.88
2019-01-26T11:25:21.198Z,19.86
2019-01-26T11:26:21.128Z,19.89
2019-01-26T11:27:21.717Z,19.89
2019-01-26T11:28:21.598Z,19.92
2019-01-26T11:29:21.643Z,19.92
2019-01-26T11:30:21.213Z,19.93
2019-01-26T11:31:21.231Z,19.93
2019-01-26T11:32:21.501Z,19.93
2019-01-26T11:33:21.647Z,19.93
2019-01-26T11:34:21.095Z,19.95
2019-01-26T11:35:21.057Z,19.95
2019-01-26T11:36:21.199Z,19.95
2019-01-26T11:37:21.525Z,19.93
2019-01-26T11:38:22.957Z,19.98
2019-01-26T11:39:21.375Z,19.98
2019-01-26T11:40:21.473Z,19.98
2019-01-26T11:41:21.208Z,19.98
2019-01-26T11:42:20.801Z,19.98
2019-01-26T11:43:21.212Z,19.98
2019-01-26T11:44:21.442Z,19.98
2019-01-26T11:45:20.884Z,20.02
2019-01-26T11:46:22.036Z,20.01
2019-01-26T11:47:21.447Z,20.01
2019-01-26T11:48:22.382Z,20.01
2019-01-26T11:49:21.007Z,20.02
2019-01-26T11:50:21.382Z,20.02
2019-01-26T11:51:22.238Z,20.02
2019-01-26T11:52:22.834Z,20.02
2019-01-26T11:53:21.797Z,20.05
2019-01-26T11:54:21.291Z,20.02
2019-01-26T11:55:21.717Z,20.02
2019-01-26T11:56:22.105Z,20.01
2019-01-26T11:57:22.542Z,20.04
2019-01-26T11:58:21.312Z,20.02
2019-01-26T11:59:21.039Z,20.04
2019-01-26T12:00:20.847Z,20.04
2019-01-26T12:01:21.411Z,20.04
2019-01-26T12:02:21.339Z,20.05
2019-01-26T12:03:25.516Z,20.05
2019-01-26T12:04:21.101Z,20.05
2019-01-26T12:05:21.149Z,20.02
2019-01-26T12:06:21.004Z,20.05
2019-01-26T12:07:22.380Z,20.05
2019-01-26T12:08:21.366Z,20.04
2019-01-26T12:09:21.788Z,20.04
2019-01-26T12:10:21.310Z,20.02
2019-01-26T12:11:21.514Z,20.04
2019-01-26T12:12:21.269Z,20.04
2019-01-26T12:13:21.286Z,20.02
2019-01-26T12:14:21.449Z,20.01
2019-01-26T12:15:23.373Z,20.01
2019-01-26T12:16:27.445Z,20.01
2019-01-26T12:17:21.260Z,20.01
2019-01-26T12:18:21.383Z,20.01
2019-01-26T12:19:22.812Z,19.99
2019-01-26T12:20:21.234Z,19.99
2019-01-26T12:21:21.421Z,20.01
2019-01-26T12:22:21.589Z,20.01
2019-01-26T12:23:21.398Z,20.02
2019-01-26T12:24:21.190Z,19.99
2019-01-26T12:25:20.978Z,19.99
2019-01-26T12:26:21.604Z,19.99
2019-01-26T12:27:21.420Z,19.98
2019-01-26T12:28:21.025Z,19.99
2019-01-26T12:29:20.959Z,19.96
2019-01-26T12:30:21.280Z,19.96
2019-01-26T12:31:21.324Z,19.96
2019-01-26T12:32:22.935Z,19.98
2019-01-26T12:33:21.488Z,19.98
2019-01-26T12:34:21.955Z,19.95
2019-01-26T12:35:21.184Z,19.95
2019-01-26T12:36:20.798Z,19.93
2019-01-26T12:37:22.098Z,19.93
2019-01-26T12:38:21.108Z,19.95
2019-01-26T12:39:21.931Z,19.95
2019-01-26T12:40:21.856Z,19.96
2019-01-26T12:41:23.387Z,19.95
2019-01-26T12:42:21.151Z,19.93
2019-01-26T12:43:21.092Z,19.92
2019-01-26T12:44:20.914Z,19.95
2019-01-26T12:45:21.078Z,19.95
2019-01-26T12:46:21.050Z,19.93
2019-01-26T12:47:21.661Z,19.95
2019-01-26T12:48:21.517Z,19.95
2019-01-26T12:49:21.442Z,19.92
2019-01-26T12:50:20.960Z,19.96
2019-01-26T12:51:21.277Z,19.93
2019-01-26T12:52:21.092Z,19.95
2019-01-26T12:53:21.839Z,19.93
2019-01-26T12:54:21.086Z,19.95